Time;durP1;ratioP1;P1;durP2;ratioP2;P2;SDS_P1;SDS_P2;PMS_P1;PMS_P2;Temp;Humidity;BMP_temperature;BMP_pressure;BME280_temperature;BME280_humidity;BME280_pressure;Samples;Min_cycle;Max_cycle;Signal;HPM_P1;HPM_P2
2023/09/21 00:00:23;;;;;;;14.80;6.30;;;;;;;18.97;43.68;99750.27;79720;1295;3013200;-72
2023/09/21 00:02:51;;;;;;;20.30;6.80;;;;;;;18.92;43.59;99750.41;79558;1298;3011842;-72
2023/09/21 00:05:23;;;;;;;14.80;6.20;;;;;;;18.88;43.77;99745.41;78427;1295;3026037;-72
2023/09/21 00:07:50;;;;;;;14.80;6.70;;;;;;;18.85;43.93;99749.10;79647;1298;3011817;-72
2023/09/21 00:10:19;;;;;;;11.00;6.60;;;;;;;18.81;44.02;99745.45;78400;1298;3049343;-75
2023/09/21 00:12:46;;;;;;;13.90;6.40;;;;;;;18.77;44.18;99741.59;79652;1295;3013474;-74
2023/09/21 00:15:21;;;;;;;13.50;6.00;;;;;;;18.73;44.40;99738.63;79663;1295;3011801;-75
2023/09/21 00:17:49;;;;;;;10.10;5.90;;;;;;;18.67;44.46;99740.02;78188;1303;3053985;-74
2023/09/21 00:20:36;;;;;;;11.00;6.00;;;;;;;18.63;44.51;99743.04;79692;1298;3013336;-73
2023/09/21 00:23:06;;;;;;;9.60;6.20;;;;;;;18.57;44.77;99741.05;78267;1295;3057033;-74
2023/09/21 00:25:35;;;;;;;13.00;6.30;;;;;;;18.54;45.03;99741.77;79675;1298;3013531;-71
2023/09/21 00:28:07;;;;;;;12.30;6.10;;;;;;;18.47;45.55;99737.95;78725;1294;3053060;-72
2023/09/21 00:30:35;;;;;;;15.90;6.20;;;;;;;18.39;45.95;99734.54;79646;1295;3013729;-72
2023/09/21 00:33:04;;;;;;;9.10;5.60;;;;;;;18.34;45.46;99740.27;78373;1300;3052759;-71
2023/09/21 00:35:30;;;;;;;13.40;6.00;;;;;;;18.31;46.34;99740.35;79658;1298;3013701;-74
2023/09/21 00:37:57;;;;;;;15.90;5.80;;;;;;;18.26;46.63;99738.89;79650;1295;3011543;-71
2023/09/21 00:40:25;;;;;;;9.60;6.10;;;;;;;18.23;47.17;99740.61;78436;1294;3056306;-72
2023/09/21 00:42:52;;;;;;;13.00;5.80;;;;;;;18.17;48.09;99739.27;79453;1294;3018515;-75
2023/09/21 00:45:21;;;;;;;15.90;6.90;;;;;;;18.12;48.10;99740.32;79559;1295;3011509;-72
2023/09/21 00:47:51;;;;;;;10.40;6.60;;;;;;;18.07;48.69;99743.21;78375;1295;3051726;-71
2023/09/21 00:50:22;;;;;;;8.80;6.20;;;;;;;18.02;49.38;99739.06;79685;1298;3013080;-72
2023/09/21 00:52:54;;;;;;;14.70;6.60;;;;;;;17.94;50.50;99736.72;78365;1296;3069812;-72
2023/09/21 00:55:29;;;;;;;11.70;7.10;;;;;;;17.88;50.62;99738.95;79584;1296;3011824;-68
2023/09/21 00:58:01;;;;;;;13.00;6.50;;;;;;;17.87;50.51;99741.73;78306;1297;3056781;-73
2023/09/21 01:00:29;;;;;;;12.10;7.10;;;;;;;17.84;50.65;99739.16;79552;1297;3013210;-72
2023/09/21 01:03:07;;;;;;;16.30;7.20;;;;;;;17.84;49.94;99738.79;78258;1297;3052636;-75
2023/09/21 01:05:39;;;;;;;13.50;6.80;;;;;;;17.82;49.64;99741.41;78286;1303;3049653;-71
2023/09/21 01:08:17;;;;;;;13.30;7.00;;;;;;;17.77;50.71;99744.29;79501;1298;3011587;-74
2023/09/21 01:10:49;;;;;;;15.20;6.80;;;;;;;17.72;50.66;99742.45;78190;1300;3052649;-74
2023/09/21 01:13:17;;;;;;;15.00;6.60;;;;;;;17.70;50.53;99747.79;79379;1300;3011663;-75
2023/09/21 01:15:46;;;;;;;12.80;6.30;;;;;;;17.67;50.39;99746.27;78348;1297;3050735;-70
2023/09/21 01:18:13;;;;;;;15.60;6.70;;;;;;;17.63;50.09;99749.09;79565;1296;3011700;-74
2023/09/21 01:20:40;;;;;;;10.70;6.10;;;;;;;17.57;50.39;99749.09;79322;1298;3012953;-74
2023/09/21 01:23:17;;;;;;;18.00;6.90;;;;;;;17.52;50.97;99750.59;78293;1297;3050108;-76
2023/09/21 01:25:46;;;;;;;11.90;6.10;;;;;;;17.48;50.79;99756.56;78279;1299;3052703;-72
2023/09/21 01:28:16;;;;;;;9.50;6.20;;;;;;;17.44;50.49;99754.92;79575;1300;3013216;-73
2023/09/21 01:30:45;;;;;;;11.10;6.30;;;;;;;17.39;51.72;99751.48;78259;1299;3069151;-73
2023/09/21 01:33:11;;;;;;;11.10;5.60;;;;;;;17.35;51.61;99751.48;79501;1296;3020518;-73
2023/09/21 01:35:38;;;;;;;10.90;6.20;;;;;;;17.34;51.49;99751.20;79467;1299;3011453;-71
2023/09/21 01:38:06;;;;;;;12.40;6.40;;;;;;;17.34;51.43;99751.52;78331;1300;3026105;-70
2023/09/21 01:40:34;;;;;;;11.00;5.90;;;;;;;17.32;51.71;99751.36;79381;1297;3018792;-73
2023/09/21 01:43:04;;;;;;;12.10;6.00;;;;;;;17.31;51.37;99753.56;79490;1299;3012911;-72
2023/09/21 01:45:33;;;;;;;13.00;6.10;;;;;;;17.32;51.55;99757.20;78289;1297;3069219;-71
2023/09/21 01:48:01;;;;;;;12.30;6.80;;;;;;;17.27;51.87;99756.36;79487;1296;3013174;-70
2023/09/21 01:50:28;;;;;;;12.40;6.00;;;;;;;17.26;51.75;99757.34;79412;1296;3013338;-73
2023/09/21 01:52:56;;;;;;;13.70;5.70;;;;;;;17.27;51.53;99758.33;78282;1298;3053048;-75
2023/09/21 01:55:23;;;;;;;13.90;6.40;;;;;;;17.28;51.53;99757.38;79513;1297;3013631;-71
2023/09/21 01:57:49;;;;;;;14.70;6.00;;;;;;;17.29;51.15;99756.40;79575;1297;3011629;-72
2023/09/21 02:00:26;;;;;;;20.60;6.40;;;;;;;17.31;50.85;99756.05;78330;1297;3027128;-72
2023/09/21 02:02:55;;;;;;;13.00;6.30;;;;;;;17.31;50.94;99752.30;78358;1300;3053273;-71
2023/09/21 02:05:21;;;;;;;18.00;6.60;;;;;;;17.31;50.72;99755.67;79979;1297;3013373;-73
2023/09/21 02:07:48;;;;;;;18.30;6.00;;;;;;;17.32;50.77;99755.81;79595;1296;3012224;-73
2023/09/21 02:10:17;;;;;;;16.70;6.90;;;;;;;17.31;51.12;99752.70;78492;1300;3026619;-69
2023/09/21 02:12:57;;;;;;;16.20;6.70;;;;;;;17.31;50.65;99757.10;80266;1297;3013574;-71
2023/09/21 02:15:26;;;;;;;14.30;6.10;;;;;;;17.30;50.65;99758.27;79002;1296;3068976;-69
2023/09/21 02:17:56;;;;;;;17.20;6.60;;;;;;;17.30;50.30;99758.09;79876;1298;3013147;-76
2023/09/21 02:20:24;;;;;;;20.50;6.70;;;;;;;17.31;50.25;99760.11;78265;1297;3049184;-74
2023/09/21 02:22:52;;;;;;;16.00;6.70;;;;;;;17.31;49.93;99758.52;79529;1298;3013828;-71
2023/09/21 02:25:19;;;;;;;14.00;6.50;;;;;;;17.32;50.24;99757.06;79422;1300;3013792;-77
2023/09/21 02:27:47;;;;;;;11.80;5.60;;;;;;;17.32;50.05;99756.14;78199;1300;3053568;-74
2023/09/21 02:30:20;;;;;;;11.00;6.40;;;;;;;17.32;49.97;99756.54;79507;1297;3013084;-74
2023/09/21 02:32:51;;;;;;;12.10;5.80;;;;;;;17.30;49.67;99755.95;78274;1296;3056426;-74
2023/09/21 02:35:29;;;;;;;14.80;5.50;;;;;;;17.28;49.58;99758.72;79382;1297;3011667;-72
2023/09/21 02:37:58;;;;;;;12.90;4.70;;;;;;;17.26;49.69;99760.84;78397;1299;3052498;-74
2023/09/21 02:40:25;;;;;;;12.60;5.60;;;;;;;17.24;49.65;99758.53;79651;1300;3013119;-72
2023/09/21 02:42:55;;;;;;;14.40;5.80;;;;;;;17.23;49.39;99759.52;79487;1297;3013064;-72
2023/09/21 02:45:24;;;;;;;10.20;4.90;;;;;;;17.21;49.23;99758.45;78404;1297;3069502;-73
2023/09/21 02:47:52;;;;;;;10.80;5.30;;;;;;;17.20;49.41;99757.88;79701;1297;3012990;-76
2023/09/21 02:50:27;;;;;;;11.90;5.10;;;;;;;17.17;49.22;99760.89;79502;1297;3011401;-73
2023/09/21 02:53:06;;;;;;;10.60;4.70;;;;;;;17.13;49.38;99757.86;78258;1300;3053700;-71
2023/09/21 02:55:37;;;;;;;8.60;4.90;;;;;;;17.08;49.14;99758.83;78306;1300;3050140;-75
2023/09/21 02:58:09;;;;;;;11.40;4.30;;;;;;;17.07;49.43;99758.71;79431;1300;3013330;-73
2023/09/21 03:00:42;;;;;;;12.80;5.60;;;;;;;17.02;48.99;99758.41;78222;1300;3052991;-74
2023/09/21 03:03:12;;;;;;;8.50;4.80;;;;;;;17.00;49.37;99762.11;79417;1300;3011539;-76
2023/09/21 03:05:41;;;;;;;14.20;5.80;;;;;;;16.98;49.12;99763.52;78225;1297;3050992;-72
2023/09/21 03:08:13;;;;;;;11.30;5.00;;;;;;;16.95;49.09;99761.83;79539;1296;3013369;-73
2023/09/21 03:10:47;;;;;;;11.00;4.90;;;;;;;16.95;48.98;99765.08;78343;1299;3053362;-73
2023/09/21 03:13:17;;;;;;;11.00;5.40;;;;;;;16.93;48.93;99764.64;79391;1297;3012087;-72
2023/09/21 03:15:47;;;;;;;14.80;5.40;;;;;;;16.90;49.18;99763.33;78441;1299;3052635;-73
2023/09/21 03:18:14;;;;;;;12.20;4.90;;;;;;;16.88;49.06;99762.77;79678;1296;3012931;-73
2023/09/21 03:20:43;;;;;;;9.90;4.70;;;;;;;16.86;48.99;99759.55;79440;1297;3011730;-71
2023/09/21 03:23:12;;;;;;;12.60;5.50;;;;;;;16.85;49.12;99762.60;78410;1296;3055575;-74
2023/09/21 03:25:40;;;;;;;11.40;5.10;;;;;;;16.83;49.50;99761.95;79548;1296;3015838;-70
2023/09/21 03:28:13;;;;;;;14.10;5.50;;;;;;;16.81;49.44;99762.44;79159;1297;3011544;-78
2023/09/21 03:30:40;;;;;;;15.70;5.00;;;;;;;16.81;49.76;99762.81;79705;1296;3013225;-72
2023/09/21 03:33:09;;;;;;;9.80;5.50;;;;;;;16.79;49.78;99763.87;78287;1300;3026284;-74
2023/09/21 03:35:37;;;;;;;15.80;4.90;;;;;;;16.78;49.48;99764.64;79794;1300;3013402;-71
2023/09/21 03:38:12;;;;;;;11.80;4.60;;;;;;;16.76;49.65;99765.13;79611;1299;3011909;-70
2023/09/21 03:40:41;;;;;;;13.80;5.60;;;;;;;16.75;49.77;99766.11;78167;1300;3056714;-75
2023/09/21 03:43:12;;;;;;;9.10;5.10;;;;;;;16.75;49.97;99765.73;79685;1297;3012811;-74
2023/09/21 03:45:41;;;;;;;11.00;5.30;;;;;;;16.75;50.15;99766.84;78353;1300;3050038;-69
2023/09/21 03:48:08;;;;;;;9.40;4.70;;;;;;;16.74;49.74;99766.38;79621;1300;3012792;-71
2023/09/21 03:50:36;;;;;;;10.40;5.20;;;;;;;16.73;49.98;99770.52;79603;1297;3011607;-74
2023/09/21 03:53:05;;;;;;;9.90;5.60;;;;;;;16.72;50.27;99772.88;78304;1300;3052188;-68
2023/09/21 03:55:32;;;;;;;13.70;5.40;;;;;;;16.71;50.20;99771.56;79518;1300;3013261;-70
2023/09/21 03:57:58;;;;;;;16.40;5.30;;;;;;;16.72;50.31;99776.26;79566;1295;3013003;-77
2023/09/21 04:00:29;;;;;;;10.10;5.80;;;;;;;16.73;50.26;99777.55;78405;1297;3051135;-75
2023/09/21 04:02:58;;;;;;;8.80;5.70;;;;;;;16.77;50.19;99778.31;79521;1297;3013076;-76
2023/09/21 04:05:27;;;;;;;17.60;5.40;;;;;;;16.81;50.08;99776.96;78220;1297;3052169;-75
2023/09/21 04:07:54;;;;;;;17.70;5.50;;;;;;;16.85;49.92;99777.90;79515;1299;3013687;-73
2023/09/21 04:10:21;;;;;;;16.00;6.30;;;;;;;16.86;49.97;99779.70;79496;1297;3011737;-73
2023/09/21 04:12:50;;;;;;;15.00;6.10;;;;;;;16.86;50.33;99779.73;78498;1296;3027675;-75
2023/09/21 04:15:16;;;;;;;16.30;5.80;;;;;;;16.84;50.26;99780.98;79488;1300;3012930;-73
2023/09/21 04:17:43;;;;;;;12.10;5.20;;;;;;;16.83;50.55;99784.96;79478;1297;3011616;-75
2023/09/21 04:20:12;;;;;;;16.60;5.70;;;;;;;16.84;50.91;99783.08;78308;1299;3052378;-74
2023/09/21 04:22:41;;;;;;;18.30;5.70;;;;;;;16.88;50.58;99788.77;79548;1296;3013370;-71
2023/09/21 04:25:11;;;;;;;17.20;5.90;;;;;;;16.92;50.54;99785.29;79145;1296;3012739;-72
2023/09/21 04:27:39;;;;;;;12.30;5.70;;;;;;;16.93;50.66;99780.55;79533;1297;3014988;-77
2023/09/21 04:30:14;;;;;;;12.30;5.40;;;;;;;16.95;50.79;99782.05;79208;1297;3011879;-75
2023/09/21 04:32:43;;;;;;;12.80;5.20;;;;;;;16.94;50.88;99778.91;79552;1296;3011551;-72
2023/09/21 04:35:10;;;;;;;14.50;6.10;;;;;;;16.95;51.13;99777.59;78303;1302;3050391;-69
2023/09/21 04:37:40;;;;;;;15.70;5.90;;;;;;;16.98;51.06;99774.37;79495;1299;3020488;-72
2023/09/21 04:40:10;;;;;;;14.40;6.30;;;;;;;17.01;51.21;99767.73;79016;1299;3013099;-74
2023/09/21 04:42:39;;;;;;;19.20;6.30;;;;;;;17.02;51.33;99769.64;79455;1299;3013009;-72
2023/09/21 04:45:11;;;;;;;14.40;7.10;;;;;;;17.04;51.46;99770.14;78301;1297;3026627;-69
2023/09/21 04:47:38;;;;;;;;;;;;;;;17.09;51.35;99771.69;79559;1300;3011642;-74
2023/09/21 04:50:09;;;;;;;19.80;6.90;;;;;;;17.07;51.62;99772.05;78285;1297;3049653;-73
2023/09/21 04:52:36;;;;;;;23.40;7.10;;;;;;;17.10;51.75;99772.14;79575;1295;3011419;-71
2023/09/21 04:55:08;;;;;;;28.20;6.80;;;;;;;17.10;51.88;99771.39;79121;1299;3013285;-75
2023/09/21 04:57:36;;;;;;;27.00;7.20;;;;;;;17.12;52.20;99775.10;79607;1298;3011984;-71
2023/09/21 05:00:07;;;;;;;24.50;7.70;;;;;;;17.15;52.48;99772.63;78334;1299;3051321;-74
2023/09/21 05:02:34;;;;;;;23.60;7.70;;;;;;;17.17;53.10;99773.90;79446;1297;3011691;-77
2023/09/21 05:05:03;;;;;;;36.50;8.80;;;;;;;17.19;53.24;99771.73;79120;1298;3011926;-75
2023/09/21 05:07:31;;;;;;;25.10;8.70;;;;;;;17.21;53.37;99774.07;79668;1295;3013376;-71
2023/09/21 05:09:57;;;;;;;29.10;9.70;;;;;;;17.25;53.80;99777.82;79717;1295;3011630;-76
2023/09/21 05:12:27;;;;;;;35.90;11.00;;;;;;;17.24;53.90;99779.61;78431;1295;3050974;-71
2023/09/21 05:14:54;;;;;;;34.20;10.80;;;;;;;17.30;53.50;99779.84;79688;1295;3013659;-76
2023/09/21 05:17:21;;;;;;;38.10;10.50;;;;;;;17.35;53.22;99778.22;79662;1295;3011864;-73
2023/09/21 05:19:50;;;;;;;27.40;10.70;;;;;;;17.38;53.76;99778.59;78409;1298;3050794;-72
2023/09/21 05:22:17;;;;;;;37.50;10.70;;;;;;;17.41;53.83;99775.33;79700;1295;3012916;-72
2023/09/21 05:24:44;;;;;;;32.00;11.50;;;;;;;17.46;54.28;99781.52;79839;1298;3011529;-72
2023/09/21 05:27:12;;;;;;;37.30;11.10;;;;;;;17.48;54.36;99782.48;78374;1300;3048764;-74
2023/09/21 05:29:40;;;;;;;27.40;10.00;;;;;;;17.50;54.44;99782.83;79708;1295;3018827;-73
2023/09/21 05:32:11;;;;;;;30.10;10.50;;;;;;;17.54;53.91;99782.80;79394;1295;3012309;-75
2023/09/21 05:34:38;;;;;;;30.00;10.40;;;;;;;17.56;54.60;99784.52;79820;1294;3013317;-72
2023/09/21 05:37:04;;;;;;;35.30;10.20;;;;;;;17.62;54.55;99787.09;79826;1298;3011794;-74
2023/09/21 05:39:33;;;;;;;23.90;9.50;;;;;;;17.65;54.71;99784.52;78484;1296;3049721;-72
2023/09/21 05:42:00;;;;;;;27.00;10.20;;;;;;;17.70;54.48;99782.02;80003;1295;3013461;-71
2023/09/21 05:44:28;;;;;;;36.20;9.60;;;;;;;17.75;54.53;99783.10;79745;1294;3011405;-73
2023/09/21 05:46:57;;;;;;;25.40;9.20;;;;;;;17.80;54.07;99788.56;78773;1296;3051573;-75
2023/09/21 05:49:23;;;;;;;27.20;9.10;;;;;;;17.84;53.98;99794.11;79782;1296;3018798;-71
2023/09/21 05:51:52;;;;;;;23.00;9.70;;;;;;;17.87;53.72;99790.10;79738;1298;3011613;-70
2023/09/21 05:54:23;;;;;;;33.50;10.10;;;;;;;17.92;54.20;99793.40;78605;1296;3050695;-71
2023/09/21 05:56:51;;;;;;;23.50;8.80;;;;;;;17.98;54.20;99793.79;79670;1297;3011577;-75
2023/09/21 05:59:19;;;;;;;30.50;9.30;;;;;;;18.04;53.91;99792.41;78475;1298;3029638;-75
2023/09/21 06:01:48;;;;;;;22.90;8.90;;;;;;;18.10;53.82;99789.93;79796;1298;3012932;-76
2023/09/21 06:04:17;;;;;;;22.20;8.50;;;;;;;18.14;53.16;99784.41;79630;1298;3011527;-72
2023/09/21 06:06:46;;;;;;;25.60;8.90;;;;;;;18.19;53.66;99788.83;78418;1296;3051629;-76
2023/09/21 06:09:18;;;;;;;31.50;9.00;;;;;;;18.21;53.13;99790.69;79753;1294;3013841;-75
2023/09/21 06:11:48;;;;;;;26.70;8.10;;;;;;;18.27;53.39;99792.80;78486;1298;3053499;-77
2023/09/21 06:14:17;;;;;;;30.80;8.20;;;;;;;18.33;52.90;99791.16;79830;1298;3012626;-75
2023/09/21 06:16:45;;;;;;;21.30;7.60;;;;;;;18.41;52.83;99796.09;78760;1298;3052479;-77
2023/09/21 06:19:12;;;;;;;18.00;7.50;;;;;;;18.46;52.66;99797.25;79680;1297;3013151;-77
2023/09/21 06:21:39;;;;;;;18.00;7.80;;;;;;;18.51;52.76;99800.84;79815;1295;3011558;-77
2023/09/21 06:24:11;;;;;;;26.80;7.60;;;;;;;18.57;52.96;99802.52;78274;1298;3025815;-76
2023/09/21 06:26:38;;;;;;;30.30;9.10;;;;;;;18.66;52.70;99801.30;79723;1295;3012018;-75
2023/09/21 06:29:06;;;;;;;25.60;8.50;;;;;;;18.74;52.40;99806.07;78423;1298;3050163;-76
2023/09/21 06:31:33;;;;;;;34.30;8.80;;;;;;;18.81;52.32;99806.70;79532;1298;3013579;-76
2023/09/21 06:34:01;;;;;;;38.60;9.70;;;;;;;18.87;51.97;99806.90;79590;1295;3013814;-74
2023/09/21 06:36:29;;;;;;;29.90;8.40;;;;;;;18.94;52.09;99811.65;78443;1298;3051755;-73
2023/09/21 06:38:57;;;;;;;39.20;10.20;;;;;;;19.00;51.76;99806.33;79706;1295;3013546;-73
2023/09/21 06:41:28;;;;;;;31.10;8.30;;;;;;;19.08;51.76;99804.02;79513;1295;3013300;-76
2023/09/21 06:43:56;;;;;;;48.00;10.30;;;;;;;19.15;51.50;99807.03;78835;1300;3048829;-74
2023/09/21 06:46:22;;;;;;;57.20;12.00;;;;;;;19.23;51.37;99805.80;79793;1298;3018657;-74
2023/09/21 06:48:49;;;;;;;71.70;13.80;;;;;;;19.29;51.07;99806.30;79824;1298;3011548;-73
2023/09/21 06:51:17;;;;;;;92.10;16.00;;;;;;;19.37;51.29;99803.11;78502;1298;3026518;-75
2023/09/21 06:53:44;;;;;;;84.80;14.50;;;;;;;19.47;50.84;99808.09;79631;1294;3018865;-74
2023/09/21 06:56:11;;;;;;;56.10;12.10;;;;;;;19.58;50.60;99807.53;79682;1296;3011510;-73
2023/09/21 06:58:39;;;;;;;44.70;9.70;;;;;;;19.70;50.29;99807.37;78388;1298;3049311;-75
2023/09/21 07:01:06;;;;;;;22.70;7.50;;;;;;;19.78;50.39;99803.75;79681;1298;3013629;-71
2023/09/21 07:03:32;;;;;;;22.20;7.00;;;;;;;19.86;49.65;99808.23;79697;1294;3011785;-73
2023/09/21 07:06:00;;;;;;;17.40;6.60;;;;;;;19.96;49.55;99809.98;78521;1298;3025975;-74
2023/09/21 07:08:27;;;;;;;21.40;6.80;;;;;;;20.08;49.73;99812.34;80138;1296;3013341;-74
2023/09/21 07:10:53;;;;;;;22.10;8.50;;;;;;;20.19;49.41;99809.55;80691;1295;3011384;-72
2023/09/21 07:13:21;;;;;;;16.40;7.60;;;;;;;20.27;49.27;99806.98;79398;1298;3025905;-74
2023/09/21 07:15:48;;;;;;;16.60;7.00;;;;;;;20.38;49.22;99807.52;79857;1298;3013038;-72
2023/09/21 07:18:15;;;;;;;23.00;7.00;;;;;;;20.44;48.95;99805.05;79701;1298;3013429;-72
2023/09/21 07:20:43;;;;;;;17.50;6.80;;;;;;;20.53;48.98;99805.23;78359;1298;3027648;-75
2023/09/21 07:23:09;;;;;;;14.90;6.10;;;;;;;20.63;48.71;99802.30;79795;1294;3012996;-75
2023/09/21 07:25:36;;;;;;;11.60;6.40;;;;;;;20.71;48.62;99803.81;79629;1298;3011431;-74
2023/09/21 07:28:04;;;;;;;9.80;5.70;;;;;;;20.81;48.84;99800.92;78317;1298;3026212;-75
2023/09/21 07:30:32;;;;;;;14.10;6.40;;;;;;;20.94;48.44;99800.23;79988;1296;3012833;-75
2023/09/21 07:33:00;;;;;;;12.60;5.60;;;;;;;21.04;48.09;99800.64;79900;1298;3011607;-73
2023/09/21 07:35:31;;;;;;;21.50;6.20;;;;;;;21.12;47.89;99803.58;78404;1296;3052652;-75
2023/09/21 07:37:58;;;;;;;20.80;5.70;;;;;;;21.21;47.84;99798.95;79650;1295;3013223;-75
2023/09/21 07:40:24;;;;;;;15.20;6.20;;;;;;;21.30;47.64;99803.90;79594;1295;3011799;-75
2023/09/21 07:42:52;;;;;;;15.30;5.70;;;;;;;21.39;47.48;99805.38;78425;1298;3050010;-74
2023/09/21 07:45:20;;;;;;;15.70;5.80;;;;;;;21.52;47.43;99801.40;79616;1298;3012931;-75
2023/09/21 07:47:46;;;;;;;13.00;5.90;;;;;;;21.63;47.04;99796.50;79583;1298;3011780;-75
2023/09/21 07:50:15;;;;;;;19.60;6.20;;;;;;;21.74;46.59;99797.88;78482;1295;3053102;-73
2023/09/21 07:52:42;;;;;;;11.70;5.60;;;;;;;21.84;46.53;99794.73;79590;1296;3013584;-75
2023/09/21 07:55:09;;;;;;;11.60;5.40;;;;;;;21.97;46.28;99793.08;79538;1295;3011592;-75
2023/09/21 07:57:37;;;;;;;25.30;5.70;;;;;;;22.10;46.65;99792.64;78358;1295;3049801;-76
2023/09/21 08:00:09;;;;;;;14.50;5.70;;;;;;;22.21;46.27;99791.13;79712;1298;3013385;-77
2023/09/21 08:02:37;;;;;;;13.70;5.80;;;;;;;22.34;45.81;99790.50;78281;1301;3069490;-77
2023/09/21 08:05:05;;;;;;;15.20;5.60;;;;;;;22.46;45.90;99790.71;79819;1295;3013186;-76
2023/09/21 08:07:33;;;;;;;13.40;5.70;;;;;;;22.59;45.40;99791.23;79597;1296;3011545;-75
2023/09/21 08:10:03;;;;;;;18.50;5.50;;;;;;;22.69;44.88;99794.45;78363;1298;3052914;-75
2023/09/21 08:12:30;;;;;;;13.60;5.40;;;;;;;22.79;44.86;99792.92;79578;1295;3013414;-74
2023/09/21 08:15:00;;;;;;;9.80;5.60;;;;;;;22.90;44.85;99790.09;79145;1298;3013123;-75
2023/09/21 08:17:30;;;;;;;18.90;5.90;;;;;;;22.98;44.07;99788.55;79691;1298;3011390;-76
2023/09/21 08:19:58;;;;;;;20.60;5.70;;;;;;;23.11;43.89;99790.15;78389;1298;3050802;-76
2023/09/21 08:22:27;;;;;;;16.90;6.00;;;;;;;23.23;42.90;99795.16;79564;1298;3019007;-77
2023/09/21 08:24:56;;;;;;;21.60;5.50;;;;;;;23.29;42.80;99788.59;79058;1296;3011484;-73
2023/09/21 08:27:23;;;;;;;23.50;5.50;;;;;;;23.39;42.78;99787.72;79693;1295;3013543;-75
2023/09/21 08:29:49;;;;;;;13.60;5.40;;;;;;;23.48;42.01;99784.61;79658;1295;3013118;-75
2023/09/21 08:32:17;;;;;;;11.20;5.30;;;;;;;23.57;41.84;99784.44;78511;1298;3026881;-75
2023/09/21 08:34:44;;;;;;;19.40;6.90;;;;;;;23.70;41.79;99786.42;79632;1296;3011879;-76
2023/09/21 08:37:11;;;;;;;18.50;6.80;;;;;;;23.75;41.87;99785.36;79685;1298;3013333;-73
2023/09/21 08:39:39;;;;;;;19.50;6.90;;;;;;;23.86;41.75;99785.77;78393;1296;3026639;-76
2023/09/21 08:42:05;;;;;;;21.40;6.80;;;;;;;23.93;41.35;99787.11;79644;1295;3013200;-73
2023/09/21 08:44:33;;;;;;;12.60;6.50;;;;;;;24.02;41.09;99787.59;79624;1296;3011674;-73
2023/09/21 08:47:01;;;;;;;12.00;5.40;;;;;;;24.16;41.02;99789.55;78416;1295;3051775;-73
2023/09/21 08:49:28;;;;;;;13.80;5.90;;;;;;;24.30;40.54;99786.27;79718;1298;3013189;-72
2023/09/21 08:51:54;;;;;;;13.20;5.30;;;;;;;24.41;40.29;99782.86;79493;1295;3011734;-72
2023/09/21 08:54:23;;;;;;;11.50;5.00;;;;;;;24.51;39.47;99785.30;78353;1300;3025836;-76
2023/09/21 08:56:55;;;;;;;18.30;4.80;;;;;;;24.57;39.21;99784.96;79444;1297;3013388;-75
2023/09/21 08:59:22;;;;;;;12.90;4.40;;;;;;;24.68;39.00;99781.77;78683;1298;3052113;-73
2023/09/21 09:01:49;;;;;;;10.90;4.00;;;;;;;24.83;38.52;99783.50;79854;1300;3020901;-75
2023/09/21 09:04:15;;;;;;;15.10;4.10;;;;;;;24.89;37.90;99787.98;79618;1300;3011603;-75
2023/09/21 09:06:43;;;;;;;12.00;4.10;;;;;;;25.01;37.58;99778.17;78402;1298;3026696;-73
2023/09/21 09:09:10;;;;;;;11.10;3.60;;;;;;;25.08;37.15;99784.80;79743;1295;3012868;-74
2023/09/21 09:11:38;;;;;;;13.30;3.90;;;;;;;25.14;37.18;99782.12;79584;1298;3011643;-75
2023/09/21 09:14:13;;;;;;;15.20;4.00;;;;;;;25.21;37.23;99781.53;78527;1298;3051538;-78
2023/09/21 09:16:42;;;;;;;15.90;4.10;;;;;;;25.28;36.85;99781.10;79276;1298;3011725;-72
2023/09/21 09:19:11;;;;;;;16.50;4.10;;;;;;;25.37;36.67;99781.99;79695;1298;3013009;-72
2023/09/21 09:21:41;;;;;;;19.10;4.60;;;;;;;25.44;36.55;99783.81;78989;1298;3013092;-73
2023/09/21 09:24:14;;;;;;;12.30;4.50;;;;;;;25.52;36.39;99781.02;79654;1295;3012788;-74
2023/09/21 09:26:42;;;;;;;24.90;5.20;;;;;;;25.61;35.85;99777.16;78435;1298;3049488;-75
2023/09/21 09:29:12;;;;;;;28.60;5.50;;;;;;;25.74;35.75;99775.11;79848;1298;3013889;-75
2023/09/21 09:31:41;;;;;;;20.60;5.90;;;;;;;25.84;34.98;99778.20;79041;1298;3011566;-75
2023/09/21 09:34:17;;;;;;;18.70;3.70;;;;;;;25.90;34.25;99768.67;79738;1308;3013478;-74
2023/09/21 09:36:49;;;;;;;14.70;4.40;;;;;;;26.00;33.99;99769.84;78348;1298;3069663;-74
2023/09/21 09:39:18;;;;;;;17.50;4.80;;;;;;;26.03;34.21;99770.98;79652;1298;3012090;-75
2023/09/21 09:41:48;;;;;;;27.30;4.60;;;;;;;26.12;34.09;99774.41;78352;1298;3056896;-76
2023/09/21 09:44:19;;;;;;;22.40;4.10;;;;;;;26.25;33.79;99770.07;79577;1296;3013595;-77
2023/09/21 09:46:48;;;;;;;21.00;4.90;;;;;;;26.34;33.71;99764.51;78490;1298;3052329;-75
2023/09/21 09:49:14;;;;;;;20.20;4.00;;;;;;;26.43;33.64;99762.49;79532;1300;3013832;-75
2023/09/21 09:51:44;;;;;;;14.90;3.70;;;;;;;26.53;32.99;99761.08;79670;1298;3013324;-75
2023/09/21 09:54:12;;;;;;;12.80;3.50;;;;;;;26.65;32.17;99756.52;78579;1295;3069077;-76
2023/09/21 09:56:42;;;;;;;11.80;2.80;;;;;;;26.66;32.20;99754.63;79453;1298;3019039;-75
2023/09/21 09:59:11;;;;;;;12.50;3.00;;;;;;;26.65;32.04;99759.05;79169;1298;3011584;-75
2023/09/21 10:01:39;;;;;;;10.60;3.30;;;;;;;26.72;32.11;99749.28;79900;1295;3013042;-77
2023/09/21 10:04:05;;;;;;;16.20;4.10;;;;;;;26.79;32.26;99751.60;79594;1296;3012184;-75
2023/09/21 10:06:36;;;;;;;16.60;2.80;;;;;;;26.83;32.88;99745.92;75629;1298;6535634;-74
2023/09/21 10:09:09;;;;;;;13.30;3.30;;;;;;;26.88;32.88;99743.66;79604;1298;3012020;-74
2023/09/21 10:11:38;;;;;;;8.80;2.70;;;;;;;26.94;32.69;99736.27;78515;1299;3069697;-75
2023/09/21 10:14:07;;;;;;;9.30;2.90;;;;;;;26.97;33.15;99740.73;79699;1295;3013135;-75
2023/09/21 10:16:38;;;;;;;12.00;3.20;;;;;;;26.91;33.72;99737.40;79066;1295;3011833;-75
2023/09/21 10:19:06;;;;;;;12.80;3.70;;;;;;;26.79;34.50;99741.39;79606;1298;3013282;-75
2023/09/21 10:21:38;;;;;;;18.80;3.30;;;;;;;26.61;34.76;99737.63;79181;1298;3011520;-74
2023/09/21 10:27:18;;;;;;;12.00;2.90;;;;;;;26.85;34.64;99733.86;78262;1309;3052623;-75
2023/09/21 10:29:45;;;;;;;14.40;2.80;;;;;;;26.92;34.51;99734.59;79152;1313;3011954;-74
2023/09/21 10:32:14;;;;;;;19.50;2.30;;;;;;;26.87;34.01;99730.32;78239;1307;3011719;-71
2023/09/21 10:34:48;;;;;;;10.70;2.70;;;;;;;27.03;34.41;99726.14;78791;1312;3018715;-73
2023/09/21 10:37:26;;;;;;;16.00;3.30;;;;;;;27.23;35.00;99729.61;78284;1311;3049482;-73
2023/09/21 10:39:58;;;;;;;9.90;2.50;;;;;;;27.41;34.94;99727.25;77705;1307;3053211;-75
2023/09/21 10:42:27;;;;;;;8.70;3.10;;;;;;;27.53;34.16;99726.33;79153;1307;3012241;-74
2023/09/21 10:45:07;;;;;;;7.10;2.50;;;;;;;27.53;32.52;99722.69;77729;1309;3051949;-74
2023/09/21 10:47:48;;;;;;;9.30;2.50;;;;;;;27.51;32.07;99727.19;77715;1320;3052730;-74
2023/09/21 10:50:18;;;;;;;11.90;3.10;;;;;;;27.58;32.52;99721.39;77542;1309;3068678;-75
2023/09/21 10:52:51;;;;;;;7.00;2.40;;;;;;;27.62;32.55;99717.77;78846;1307;3011644;-75
2023/09/21 10:55:20;;;;;;;10.90;2.50;;;;;;;27.69;32.78;99717.30;77815;1309;3056078;-76
2023/09/21 10:57:47;;;;;;;7.80;2.50;;;;;;;27.56;31.55;99713.48;78943;1311;3015875;-76
2023/09/21 11:00:21;;;;;;;11.10;2.50;;;;;;;27.61;31.90;99706.82;79105;1307;3011592;-75
2023/09/21 11:02:49;;;;;;;10.20;2.40;;;;;;;27.55;31.91;99703.64;77746;1309;3051881;-74
2023/09/21 11:05:17;;;;;;;9.20;2.50;;;;;;;27.51;32.17;99695.98;78904;1306;3018383;-74
2023/09/21 11:07:44;;;;;;;8.50;2.30;;;;;;;27.73;32.21;99698.39;79097;1309;3012641;-75
2023/09/21 11:10:12;;;;;;;10.10;2.80;;;;;;;27.79;31.84;99689.57;77814;1307;3026949;-75
2023/09/21 11:12:40;;;;;;;8.90;2.70;;;;;;;27.86;32.18;99692.35;78727;1307;3013948;-74
2023/09/21 11:15:09;;;;;;;6.10;2.30;;;;;;;27.97;32.03;99696.89;79000;1308;3013004;-77
2023/09/21 11:17:37;;;;;;;16.10;2.70;;;;;;;27.93;32.22;99697.20;77813;1311;3053225;-77
2023/09/21 11:20:04;;;;;;;9.70;2.20;;;;;;;27.94;31.77;99695.98;78935;1311;3016158;-75